EGKKEGHH

Guest
Details From EGKK - London Gatwick
To EGHH - Bournemouth
Flight Number -
Tags Generated
Created
Modified
Stats Distance 65 nm / 121 km
Max Altitude 0 ft / 0 m
Waypoints 2
Social Downloads 2
Likes 0
Share VATSIM

Download

Looking for another format? Having issues loading an existing format? Contact us
Advertisement - Login to hide

Notes

Generated

Route

EGKK EGHH

ID Type Via Altitude Latitude Longitude Leg Dist Tot Dist Heading (true) Name
O EGKK APT - 0 ft / 0 m 51.14691˚ -0.21257˚ - 0 nm - -
O EGHH APT - 0 ft / 0 m 50.78370˚ -1.84038˚ 65 nm 65 nm 251° / 250° Bournemouth

Altitude Profile

Advertisement - Login to hide

EGKK

Details ICAO EGKK (LGW)
Name London Gatwick
Region United Kingdom
Timezone Europe/London (UTC+1.0)
Stats Elevation 196 ft / 60 m (AMSL)
Location 51.148753° -0.192472°
Runways 2
Magnetic Variation 0.368° W

METAR

EGKK 240820Z 01007KT 6000 -RA BKN006 12/11 Q1020

Decode

TAF

TAF EGKK 240449Z 2406/2512 02006KT 9999 FEW045 TEMPO 2406/2420 7000 SHRA PROB30 TEMPO 2406/2409 4000 +SHRA BKN009 BKN045CB PROB40 TEMPO 2414/2419 03015G25KT 4000 +SHRA +TSRA BKN014 BKN040CB BECMG 2423/2502 6000 PROB30 TEMPO 2500/2508 3000 BR BKN004 BECMG 2505/2508 9999

Decode

Departure Runways

ID Width Length Bearing (true) Bearing (mag) Surface Threshold Offset Overrun Length
08L 148 ft / 45 m 8,377 ft / 2,553 m 77.69° 78.06° Asphalt 1,053 ft / 321 m 0 ft / 0 m
08R 148 ft / 45 m 10,341 ft / 3,152 m 77.59° 77.96° Asphalt 1,289 ft / 393 m 0 ft / 0 m
26L 148 ft / 45 m 10,341 ft / 3,152 m 257.63° 258.00° Asphalt 879 ft / 268 m 600 ft / 183 m
26R 148 ft / 45 m 8,377 ft / 2,553 m 257.71° 258.08° Asphalt 1,365 ft / 416 m 0 ft / 0 m

EGHH

Details ICAO EGHH (BOH)
Name Bournemouth
Region United Kingdom
Timezone Europe/London (UTC+1.0)
Stats Elevation 38 ft / 12 m (AMSL)
Location 50.780065° -1.842533°
Runways 1
Magnetic Variation 0.898° W

METAR

EGHH 240820Z 03008KT 9000 SCT010 BKN020 13/11 Q1020

Decode

TAF

Not found

Destination Runways

ID Width Length Bearing (true) Bearing (mag) Surface Threshold Offset Overrun Length
08 151 ft / 46 m 7,440 ft / 2,268 m 75.27° 76.17° Asphalt 1,424 ft / 434 m 0 ft / 0 m
26 151 ft / 46 m 7,440 ft / 2,268 m 255.29° 256.19° Asphalt 0 ft / 0 m 328 ft / 100 m

Approach Navaids

Runway Type Ident Frequency Range Bearing (true) Bearing (mag) Slope Elevation
08 Localiser IBMH 110.50 MHz 18 nm / 33 km 75.09° 75.99° - 32 ft / 10 m (AMSL)
08 Glidescope IBMH 110.50 MHz 18 nm / 33 km 75.09° 75.99° 3.00° 30 ft / 9 m (AMSL)
08 DME IBMH 110.50 MHz 20 nm / 37 km - - - 31 ft / 9 m (AMSL)
26 Localiser IBH 110.50 MHz 18 nm / 33 km 255.41° 256.30° - 33 ft / 10 m (AMSL)
26 Glidescope IBH 110.50 MHz 18 nm / 33 km 255.41° 256.30° 3.00° 36 ft / 11 m (AMSL)
26 DME IBH 110.50 MHz 20 nm / 37 km - - - 31 ft / 9 m (AMSL)

Popular Alternatives